Time;durP1;ratioP1;P1;durP2;ratioP2;P2;SDS_P1;SDS_P2;PMS_P1;PMS_P2;Temp;Humidity;BMP_temperature;BMP_pressure;BME280_temperature;BME280_humidity;BME280_pressure;Samples;Min_cycle;Max_cycle;Signal;HPM_P1;HPM_P2
2023/12/23 00:01:20;;;;;;;10.67;2.10;;;11.70;99.90;;;;;;7282702;19;21105;-77
2023/12/23 00:03:46;;;;;;;12.50;2.20;;;11.70;99.90;;;;;;7283056;19;20192;-77
2023/12/23 00:06:12;;;;;;;13.27;2.27;;;11.80;99.90;;;;;;7283133;19;20192;-77
2023/12/23 00:08:38;;;;;;;15.40;2.40;;;11.80;99.90;;;;;;7284430;19;20192;-77
2023/12/23 00:11:04;;;;;;;12.13;2.40;;;11.70;99.90;;;;;;7283378;19;21002;-77
2023/12/23 00:13:30;;;;;;;10.17;2.03;;;11.70;99.90;;;;;;7301617;19;20673;-77
2023/12/23 00:15:55;;;;;;;14.27;2.27;;;11.70;99.90;;;;;;7304290;19;20184;-77
2023/12/23 00:18:21;;;;;;;8.67;2.03;;;11.70;99.90;;;;;;7288002;19;20772;-77
2023/12/23 00:20:47;;;;;;;10.63;2.07;;;11.70;99.90;;;;;;7291466;19;20197;-76
2023/12/23 00:23:13;;;;;;;15.33;2.00;;;11.70;99.90;;;;;;7287357;19;20196;-77
2023/12/23 00:25:40;;;;;;;16.30;2.20;;;11.60;99.90;;;;;;7287678;19;20200;-77
2023/12/23 00:28:06;;;;;;;12.77;1.93;;;11.60;99.90;;;;;;7288550;19;20258;-77
2023/12/23 00:30:32;;;;;;;14.60;2.13;;;11.60;99.90;;;;;;7287244;19;20681;-78
2023/12/23 00:32:59;;;;;;;8.60;1.87;;;11.50;99.90;;;;;;7310581;19;20195;-77
2023/12/23 00:35:26;;;;;;;18.17;2.60;;;11.50;99.90;;;;;;7288089;19;20181;-77
2023/12/23 00:37:52;;;;;;;10.97;2.27;;;11.60;99.90;;;;;;7286651;19;20188;-77
2023/12/23 00:40:18;;;;;;;10.50;1.97;;;11.50;99.90;;;;;;7287161;19;20192;-78
2023/12/23 00:42:44;;;;;;;13.30;2.40;;;11.50;99.90;;;;;;7286411;19;20224;-76
2023/12/23 00:45:10;;;;;;;13.20;2.10;;;11.40;99.90;;;;;;7287814;19;20200;-76
2023/12/23 00:47:36;;;;;;;11.77;2.23;;;11.30;99.90;;;;;;7287994;19;20274;-77
2023/12/23 00:50:02;;;;;;;14.33;2.60;;;11.40;99.90;;;;;;7286524;19;20195;-77
2023/12/23 00:52:29;;;;;;;14.87;2.10;;;11.30;99.90;;;;;;7310134;19;20187;-77
2023/12/23 00:54:55;;;;;;;14.40;2.20;;;11.20;99.90;;;;;;7289298;19;20180;-77
2023/12/23 00:57:21;;;;;;;13.87;2.33;;;11.20;99.90;;;;;;7290474;19;20193;-76
2023/12/23 00:59:46;;;;;;;15.70;2.30;;;11.30;99.90;;;;;;7292519;19;20189;-76
2023/12/23 01:02:12;;;;;;;13.53;2.13;;;11.30;99.90;;;;;;7288951;19;20196;-78
2023/12/23 01:04:38;;;;;;;12.03;2.00;;;11.40;99.90;;;;;;7285979;19;20192;-77
2023/12/23 01:07:04;;;;;;;10.93;1.70;;;11.40;99.90;;;;;;7290681;19;20228;-76
2023/12/23 01:09:30;;;;;;;12.90;1.93;;;11.40;99.90;;;;;;7304944;19;20187;-77
2023/12/23 01:11:56;;;;;;;12.53;2.07;;;11.40;99.90;;;;;;7308249;19;20192;-78
2023/12/23 01:14:22;;;;;;;14.87;2.20;;;11.40;99.90;;;;;;7289694;19;20189;-77
2023/12/23 01:16:48;;;;;;;13.33;2.10;;;11.40;99.90;;;;;;7288416;19;20188;-77
2023/12/23 01:19:13;;;;;;;11.27;1.97;;;11.50;99.90;;;;;;7289365;19;20575;-78
2023/12/23 01:21:39;;;;;;;12.43;2.10;;;11.40;99.90;;;;;;7289221;19;20705;-77
2023/12/23 01:24:05;;;;;;;12.63;1.90;;;11.30;99.90;;;;;;7287638;19;20218;-77
2023/12/23 01:26:31;;;;;;;12.67;1.73;;;11.30;99.90;;;;;;7287050;19;20286;-78
2023/12/23 01:29:00;;;;;;;14.97;2.03;;;11.30;99.90;;;;;;7311747;19;20208;-77
2023/12/23 01:31:29;;;;;;;14.50;1.87;;;11.30;99.90;;;;;;7290576;19;20206;-77
2023/12/23 01:33:55;;;;;;;14.50;1.80;;;11.30;99.90;;;;;;7286789;19;20687;-77
2023/12/23 01:36:22;;;;;;;19.20;2.50;;;11.30;99.90;;;;;;7282795;19;20191;-78
2023/12/23 01:38:48;;;;;;;13.53;1.93;;;11.30;99.90;;;;;;7287591;19;20209;-76
2023/12/23 01:41:14;;;;;;;17.23;2.27;;;11.20;99.90;;;;;;7293287;19;20229;-78
2023/12/23 01:43:40;;;;;;;8.93;1.97;;;11.20;99.90;;;;;;7288732;19;20185;-76
2023/12/23 01:46:06;;;;;;;13.27;2.00;;;11.20;99.90;;;;;;7292857;19;20546;-76
2023/12/23 01:48:36;;;;;;;10.10;1.73;;;11.30;99.90;;;;;;7282658;19;20180;-76
2023/12/23 01:51:03;;;;;;;11.70;2.10;;;11.40;99.90;;;;;;7292505;19;20184;-76
2023/12/23 01:53:31;;;;;;;11.80;1.63;;;11.50;99.90;;;;;;7317416;19;20220;-77
2023/12/23 01:55:57;;;;;;;12.13;1.77;;;11.50;99.90;;;;;;7294628;19;20201;-77
2023/12/23 01:58:23;;;;;;;12.97;1.77;;;11.40;99.90;;;;;;7284412;19;20222;-78
2023/12/23 02:00:50;;;;;;;11.87;1.80;;;11.30;99.90;;;;;;7285868;19;20281;-77
2023/12/23 02:03:15;;;;;;;11.33;1.70;;;11.20;99.90;;;;;;7282545;19;20204;-76
2023/12/23 02:05:42;;;;;;;10.40;1.50;;;11.30;99.90;;;;;;7287112;19;20209;-77
2023/12/23 02:08:08;;;;;;;11.50;1.90;;;11.20;99.90;;;;;;7290724;19;20223;-77
2023/12/23 02:10:34;;;;;;;11.97;2.17;;;11.20;99.90;;;;;;7285172;19;20188;-76
2023/12/23 02:13:24;;;;;;;12.43;2.00;;;11.10;99.90;;;;;;7310533;19;20198;-77
2023/12/23 02:15:52;;;;;;;12.03;1.97;;;11.10;99.90;;;;;;7179139;19;2004811;-77
2023/12/23 02:18:19;;;;;;;13.50;1.70;;;11.20;99.90;;;;;;7279355;19;20183;-77
2023/12/23 02:20:49;;;;;;;11.60;2.20;;;11.20;99.90;;;;;;7281482;19;20196;-77
2023/12/23 02:23:15;;;;;;;15.13;2.53;;;11.10;99.90;;;;;;7280408;19;20250;-77
2023/12/23 02:25:44;;;;;;;11.07;1.57;;;11.20;99.90;;;;;;7292333;19;20195;-76
2023/12/23 02:28:14;;;;;;;14.23;1.80;;;11.20;99.90;;;;;;7290040;19;20207;-77
2023/12/23 02:30:43;;;;;;;12.20;1.60;;;11.30;99.90;;;;;;7293206;19;20183;-76
2023/12/23 02:33:09;;;;;;;9.17;1.73;;;11.20;99.90;;;;;;7292961;19;20231;-76
2023/12/23 02:35:35;;;;;;;9.23;1.70;;;11.20;99.90;;;;;;7284129;19;20568;-76
2023/12/23 02:38:01;;;;;;;14.43;1.87;;;11.20;99.90;;;;;;7296931;19;20211;-77
2023/12/23 02:40:27;;;;;;;12.07;1.80;;;11.20;99.90;;;;;;7293433;19;20568;-76
2023/12/23 02:42:53;;;;;;;14.57;1.73;;;11.20;99.90;;;;;;7277592;19;20187;-76
2023/12/23 02:45:19;;;;;;;12.00;2.20;;;11.20;99.90;;;;;;7279661;19;20188;-77
2023/12/23 02:47:44;;;;;;;13.07;1.77;;;11.10;99.90;;;;;;7277132;19;20183;-76
2023/12/23 02:50:10;;;;;;;14.60;2.07;;;11.10;99.90;;;;;;7279085;19;20188;-76
2023/12/23 02:52:36;;;;;;;12.17;2.10;;;11.20;99.90;;;;;;7280068;19;20189;-76
2023/12/23 02:55:03;;;;;;;12.63;1.70;;;11.20;99.90;;;;;;7290904;19;20293;-76
2023/12/23 02:57:29;;;;;;;13.47;2.27;;;11.10;99.90;;;;;;7308588;19;20208;-76
2023/12/23 02:59:54;;;;;;;12.93;1.80;;;11.20;99.90;;;;;;7288556;19;20183;-76
2023/12/23 03:02:20;;;;;;;12.43;1.73;;;11.10;99.90;;;;;;7287631;19;20261;-76
2023/12/23 03:04:46;;;;;;;11.93;1.57;;;11.10;99.90;;;;;;7287140;19;20187;-76
2023/12/23 03:07:12;;;;;;;10.43;1.50;;;11.10;99.90;;;;;;7286473;19;20228;-76
2023/12/23 03:09:38;;;;;;;8.70;1.47;;;11.30;99.90;;;;;;7285949;19;20305;-76
2023/12/23 03:12:04;;;;;;;12.63;1.57;;;11.20;99.90;;;;;;7286370;19;20207;-76
2023/12/23 03:14:30;;;;;;;14.77;1.97;;;11.20;99.90;;;;;;7310470;19;20614;-76
2023/12/23 03:16:56;;;;;;;13.40;1.90;;;11.30;99.90;;;;;;7292178;19;20185;-75
2023/12/23 03:19:22;;;;;;;14.67;1.97;;;11.30;99.90;;;;;;7288842;19;20208;-76
2023/12/23 03:21:48;;;;;;;14.63;2.30;;;11.30;99.90;;;;;;7287789;19;20205;-76
2023/12/23 03:24:14;;;;;;;15.47;2.20;;;11.20;99.90;;;;;;7286993;19;20199;-76
2023/12/23 03:26:40;;;;;;;11.67;1.97;;;11.20;99.90;;;;;;7286658;19;20184;-75
2023/12/23 03:29:05;;;;;;;14.83;2.00;;;11.20;99.90;;;;;;7288010;19;20247;-76
2023/12/23 03:31:34;;;;;;;11.40;1.70;;;11.00;99.90;;;;;;7301423;19;20206;-76
2023/12/23 03:34:02;;;;;;;13.33;2.07;;;11.00;99.90;;;;;;7308947;19;20183;-76
2023/12/23 03:36:28;;;;;;;15.97;2.20;;;11.10;99.90;;;;;;7288564;19;20193;-76
2023/12/23 03:38:55;;;;;;;13.60;1.80;;;11.10;99.90;;;;;;7287405;19;20213;-76
2023/12/23 03:41:21;;;;;;;17.37;2.43;;;11.20;99.90;;;;;;7286889;19;20210;-76
2023/12/23 03:43:47;;;;;;;14.17;2.33;;;11.10;99.90;;;;;;7285933;19;20600;-76
2023/12/23 03:46:13;;;;;;;13.20;1.90;;;11.10;99.90;;;;;;7287334;19;20183;-76
2023/12/23 03:48:39;;;;;;;14.50;2.37;;;11.10;99.90;;;;;;7287246;19;20271;-76
2023/12/23 03:51:06;;;;;;;19.73;2.43;;;11.20;99.90;;;;;;7285433;19;20705;-76
2023/12/23 03:53:32;;;;;;;15.70;2.50;;;11.10;99.90;;;;;;7293790;19;20701;-77
2023/12/23 03:55:58;;;;;;;18.10;2.20;;;11.20;99.90;;;;;;7308831;19;20196;-76
2023/12/23 03:58:24;;;;;;;19.13;2.30;;;11.20;99.90;;;;;;7285278;19;20192;-76
2023/12/23 04:00:50;;;;;;;15.43;2.70;;;11.20;99.90;;;;;;7289991;19;20199;-76
2023/12/23 04:03:15;;;;;;;12.63;2.00;;;11.20;99.90;;;;;;7290363;19;20204;-75
2023/12/23 04:05:41;;;;;;;11.90;1.77;;;11.10;99.90;;;;;;7282230;19;20186;-76
2023/12/23 04:08:07;;;;;;;19.00;2.07;;;11.10;99.90;;;;;;7283994;19;20200;-76
2023/12/23 04:10:32;;;;;;;13.60;1.93;;;11.10;99.90;;;;;;7288736;19;20200;-76
2023/12/23 04:12:58;;;;;;;15.03;2.63;;;11.20;99.90;;;;;;7307520;19;20202;-76
2023/12/23 04:15:24;;;;;;;15.50;2.27;;;11.20;99.90;;;;;;7287493;19;20271;-75
2023/12/23 04:17:50;;;;;;;12.17;1.97;;;11.20;99.90;;;;;;7284041;19;20203;-77
2023/12/23 04:20:16;;;;;;;15.47;2.00;;;11.20;99.90;;;;;;7286360;19;20740;-75
2023/12/23 04:22:47;;;;;;;15.17;1.90;;;11.20;99.90;;;;;;7284675;19;20185;-76
2023/12/23 04:25:14;;;;;;;17.27;2.90;;;11.20;99.90;;;;;;7284130;19;20203;-76
2023/12/23 04:27:40;;;;;;;11.17;2.00;;;11.20;99.90;;;;;;7286064;19;20202;-76
2023/12/23 04:30:07;;;;;;;9.47;1.57;;;11.20;99.90;;;;;;7284888;19;20226;-76
2023/12/23 04:32:33;;;;;;;13.83;1.90;;;11.20;99.90;;;;;;7283944;19;20193;-76
2023/12/23 04:34:59;;;;;;;15.17;1.93;;;11.10;99.90;;;;;;7306996;19;20295;-76
2023/12/23 04:37:26;;;;;;;13.53;1.90;;;11.10;99.90;;;;;;7285658;19;20281;-77
2023/12/23 04:39:53;;;;;;;13.73;2.47;;;11.10;99.90;;;;;;7285661;19;20768;-77
2023/12/23 04:42:19;;;;;;;16.43;2.03;;;11.10;99.90;;;;;;7283308;19;20197;-76
2023/12/23 04:44:45;;;;;;;19.73;3.07;;;11.10;99.90;;;;;;7283284;19;20191;-77
2023/12/23 04:47:11;;;;;;;17.17;2.20;;;10.90;99.90;;;;;;7283818;19;20196;-77
2023/12/23 04:49:38;;;;;;;14.47;2.07;;;10.90;99.90;;;;;;7283477;19;20191;-77
2023/12/23 04:52:04;;;;;;;16.83;2.10;;;10.80;99.90;;;;;;7283547;19;20191;-76
2023/12/23 04:54:32;;;;;;;15.17;2.73;;;10.70;99.90;;;;;;7305861;19;20619;-77
2023/12/23 04:56:58;;;;;;;13.20;2.00;;;10.50;99.90;;;;;;7282715;19;20182;-76
2023/12/23 04:59:24;;;;;;;13.27;1.77;;;10.50;99.90;;;;;;7283731;19;20198;-77
2023/12/23 05:01:50;;;;;;;10.77;2.00;;;10.50;99.90;;;;;;7282364;19;20196;-77
2023/12/23 05:04:16;;;;;;;16.90;2.20;;;10.50;99.90;;;;;;7281719;19;20690;-77
2023/12/23 05:06:42;;;;;;;13.53;2.40;;;10.50;99.90;;;;;;7283688;19;20263;-77
2023/12/23 05:09:08;;;;;;;17.63;2.60;;;10.40;99.90;;;;;;7284270;19;20183;-77
2023/12/23 05:11:33;;;;;;;17.53;2.63;;;10.40;99.90;;;;;;7283147;19;20198;-76
2023/12/23 05:13:59;;;;;;;15.20;2.40;;;10.40;99.90;;;;;;7305321;19;20190;-77
2023/12/23 05:16:25;;;;;;;15.47;1.83;;;10.40;99.90;;;;;;7282893;19;20320;-77
2023/12/23 05:18:51;;;;;;;14.80;2.23;;;10.50;99.90;;;;;;7284384;19;21158;-76
2023/12/23 05:21:16;;;;;;;18.40;2.10;;;10.50;99.90;;;;;;7281735;19;20537;-77
2023/12/23 05:23:42;;;;;;;14.77;2.20;;;10.50;99.90;;;;;;7281768;19;20243;-77
2023/12/23 05:26:08;;;;;;;22.13;2.17;;;10.50;99.90;;;;;;7283049;19;20266;-77
2023/12/23 05:28:34;;;;;;;13.50;2.00;;;10.40;99.90;;;;;;7281071;19;20222;-78
2023/12/23 05:31:00;;;;;;;14.60;2.27;;;10.50;99.90;;;;;;7303418;19;20710;-77
2023/12/23 05:33:26;;;;;;;18.80;2.57;;;10.50;99.90;;;;;;7281778;19;20235;-78
2023/12/23 05:35:52;;;;;;;16.70;2.90;;;10.50;99.90;;;;;;7281730;19;20187;-76
2023/12/23 05:38:18;;;;;;;17.37;2.20;;;10.50;99.90;;;;;;7280310;19;20219;-77
2023/12/23 05:40:43;;;;;;;14.67;2.00;;;10.50;99.90;;;;;;7281214;19;20315;-78
2023/12/23 05:43:09;;;;;;;14.23;2.20;;;10.60;99.90;;;;;;7280747;19;20187;-77
2023/12/23 05:45:35;;;;;;;16.50;2.33;;;10.70;99.90;;;;;;7281961;19;20195;-77
2023/12/23 05:48:01;;;;;;;15.30;2.00;;;10.70;99.90;;;;;;7302819;19;20780;-77
2023/12/23 05:50:26;;;;;;;17.37;2.90;;;10.80;99.90;;;;;;7281333;19;20612;-77
2023/12/23 05:52:52;;;;;;;18.47;2.37;;;10.90;99.90;;;;;;7281829;19;20180;-77
2023/12/23 05:55:19;;;;;;;17.80;2.50;;;10.80;99.90;;;;;;7281092;19;20186;-77
2023/12/23 05:57:45;;;;;;;15.53;2.50;;;10.90;99.90;;;;;;7279987;19;20187;-76
2023/12/23 06:00:11;;;;;;;15.10;2.20;;;10.80;99.90;;;;;;7281341;19;20211;-77
2023/12/23 06:02:37;;;;;;;17.13;2.50;;;10.70;99.90;;;;;;7280355;19;20182;-76
2023/12/23 06:05:04;;;;;;;17.13;2.27;;;10.60;99.90;;;;;;7279679;19;20505;-77
2023/12/23 06:07:30;;;;;;;18.80;2.77;;;10.70;99.90;;;;;;7302523;19;20207;-77
2023/12/23 06:09:55;;;;;;;18.20;2.20;;;10.70;99.90;;;;;;7280505;19;20617;-76
2023/12/23 06:12:21;;;;;;;20.40;2.73;;;10.70;99.90;;;;;;7280768;19;20684;-77
2023/12/23 06:14:47;;;;;;;23.40;3.07;;;10.80;99.90;;;;;;7278774;19;20206;-78
2023/12/23 06:17:13;;;;;;;15.43;2.60;;;10.90;99.90;;;;;;7280361;19;20194;-77
2023/12/23 06:19:39;;;;;;;16.73;2.37;;;10.90;99.90;;;;;;7280767;19;20249;-78
2023/12/23 06:22:04;;;;;;;20.27;2.50;;;11.00;99.90;;;;;;7278232;19;20187;-77
2023/12/23 06:24:30;;;;;;;16.97;2.80;;;11.00;99.90;;;;;;7302128;19;20662;-78
2023/12/23 06:26:56;;;;;;;19.87;2.73;;;11.10;99.90;;;;;;7280417;19;20190;-78
2023/12/23 06:29:22;;;;;;;18.00;2.33;;;11.10;99.90;;;;;;7282085;19;20184;-77
2023/12/23 06:31:48;;;;;;;18.90;2.43;;;11.10;99.90;;;;;;7287753;19;20205;-77
2023/12/23 06:34:13;;;;;;;19.07;2.90;;;11.10;99.90;;;;;;7287739;19;20254;-77
2023/12/23 06:36:39;;;;;;;13.70;2.17;;;11.20;99.90;;;;;;7285785;19;20189;-77
2023/12/23 06:39:05;;;;;;;13.57;2.43;;;11.10;99.90;;;;;;7285643;19;20190;-77
2023/12/23 06:41:30;;;;;;;13.03;2.17;;;11.10;99.90;;;;;;7307003;19;20342;-76
2023/12/23 06:43:56;;;;;;;17.10;2.20;;;11.10;99.90;;;;;;7285434;19;20263;-77
2023/12/23 06:46:22;;;;;;;16.87;2.50;;;11.10;99.90;;;;;;7284879;19;20191;-76
2023/12/23 06:48:48;;;;;;;11.33;2.10;;;11.20;99.90;;;;;;7284056;19;20195;-76
2023/12/23 06:51:13;;;;;;;19.33;2.53;;;11.20;99.90;;;;;;7284905;19;20190;-76
2023/12/23 06:53:39;;;;;;;14.70;2.30;;;11.30;99.90;;;;;;7283743;19;20548;-77
2023/12/23 06:56:06;;;;;;;12.97;2.00;;;11.20;99.90;;;;;;7284793;19;20697;-75
2023/12/23 06:58:32;;;;;;;18.27;2.90;;;11.20;99.90;;;;;;7302091;19;20192;-76
2023/12/23 07:00:57;;;;;;;13.93;2.07;;;11.20;99.90;;;;;;7300747;19;20195;-76
2023/12/23 07:03:23;;;;;;;13.83;2.07;;;11.10;99.90;;;;;;7284433;19;20584;-76
2023/12/23 07:05:49;;;;;;;15.00;2.77;;;11.10;99.90;;;;;;7283652;19;20282;-76
2023/12/23 07:08:15;;;;;;;15.73;2.50;;;11.10;99.90;;;;;;7283353;19;20702;-76
2023/12/23 07:10:41;;;;;;;14.27;2.33;;;11.10;99.90;;;;;;7283839;19;20259;-76
2023/12/23 07:13:06;;;;;;;16.90;1.87;;;11.10;99.90;;;;;;7284241;19;20737;-76
2023/12/23 07:15:32;;;;;;;17.93;3.23;;;11.10;99.90;;;;;;7295210;19;20286;-76
2023/12/23 07:17:58;;;;;;;16.70;2.20;;;11.20;99.90;;;;;;7301713;19;20263;-77
2023/12/23 07:20:24;;;;;;;16.77;2.40;;;11.20;99.90;;;;;;7284631;19;20194;-76
2023/12/23 07:22:49;;;;;;;12.03;2.17;;;11.30;99.90;;;;;;7283804;19;20185;-77
2023/12/23 07:25:16;;;;;;;20.13;2.60;;;11.40;99.90;;;;;;7282958;19;20203;-77
2023/12/23 07:27:42;;;;;;;16.70;2.07;;;11.40;99.90;;;;;;7283782;19;20211;-77
2023/12/23 07:30:08;;;;;;;15.80;2.40;;;11.40;99.90;;;;;;7282421;19;20205;-76
2023/12/23 07:32:34;;;;;;;17.83;2.33;;;11.40;99.90;;;;;;7283114;19;20202;-76
2023/12/23 07:35:00;;;;;;;17.20;2.23;;;11.40;99.90;;;;;;7303287;19;20191;-77
2023/12/23 07:37:25;;;;;;;17.67;2.00;;;11.50;99.90;;;;;;7283008;19;20198;-76
2023/12/23 07:39:51;;;;;;;9.53;1.80;;;11.40;99.90;;;;;;7280747;19;20205;-77
2023/12/23 07:42:17;;;;;;;13.43;2.07;;;11.40;99.90;;;;;;7279813;19;20208;-76
2023/12/23 07:44:43;;;;;;;15.97;2.27;;;11.30;99.90;;;;;;7282688;19;20554;-76
2023/12/23 07:47:12;;;;;;;15.13;2.10;;;11.30;99.90;;;;;;7282536;19;20547;-75
2023/12/23 07:49:38;;;;;;;17.00;2.00;;;11.30;99.90;;;;;;7281451;19;21061;-76
2023/12/23 07:52:05;;;;;;;9.23;2.00;;;11.20;99.90;;;;;;7282150;19;20194;-76
2023/12/23 07:54:31;;;;;;;14.83;2.43;;;11.20;99.90;;;;;;7302162;19;20179;-76
2023/12/23 07:56:57;;;;;;;11.70;1.90;;;11.20;99.90;;;;;;7282834;19;20220;-77
2023/12/23 07:59:22;;;;;;;13.87;1.90;;;11.20;99.90;;;;;;7283627;19;20179;-77
2023/12/23 08:01:48;;;;;;;11.80;1.77;;;11.30;99.90;;;;;;7283422;19;20195;-76
2023/12/23 08:04:15;;;;;;;20.23;2.40;;;11.30;99.90;;;;;;7281157;19;20205;-76
2023/12/23 08:06:41;;;;;;;13.37;2.00;;;11.40;99.90;;;;;;7281258;19;20189;-77
2023/12/23 08:09:08;;;;;;;11.13;2.00;;;11.50;99.90;;;;;;7282831;19;20203;-76
2023/12/23 08:11:36;;;;;;;14.23;2.00;;;11.60;99.90;;;;;;7280245;19;21226;-77
2023/12/23 08:14:03;;;;;;;14.10;2.23;;;11.60;99.90;;;;;;7295151;19;20699;-77
2023/12/23 08:16:29;;;;;;;19.93;2.10;;;11.60;99.90;;;;;;7305533;19;20197;-77
2023/12/23 08:18:55;;;;;;;17.73;2.20;;;11.60;99.90;;;;;;7281428;19;20187;-77
2023/12/23 08:21:21;;;;;;;12.47;1.60;;;11.50;99.90;;;;;;7280291;19;20674;-76
2023/12/23 08:23:47;;;;;;;13.40;2.60;;;11.40;99.90;;;;;;7282713;19;20195;-77
2023/12/23 08:26:12;;;;;;;12.80;2.23;;;11.30;99.90;;;;;;7282500;19;20193;-76
2023/12/23 08:28:38;;;;;;;14.57;1.80;;;11.30;99.90;;;;;;7279813;19;20528;-77
2023/12/23 08:31:05;;;;;;;13.77;1.83;;;11.40;99.90;;;;;;7278726;19;20219;-77
2023/12/23 08:33:32;;;;;;;14.67;2.43;;;11.40;99.90;;;;;;7301256;19;20181;-77
2023/12/23 08:36:00;;;;;;;14.07;1.93;;;11.50;99.90;;;;;;7280781;19;20200;-77
2023/12/23 08:38:25;;;;;;;15.40;2.00;;;11.50;99.90;;;;;;7278278;19;20196;-76
2023/12/23 08:40:51;;;;;;;16.30;1.83;;;11.40;99.90;;;;;;7279866;19;20845;-77
2023/12/23 08:43:17;;;;;;;13.50;2.13;;;11.40;99.90;;;;;;7279625;19;20203;-76
2023/12/23 08:45:42;;;;;;;12.73;1.77;;;11.40;99.90;;;;;;7280877;19;20196;-76
2023/12/23 08:48:08;;;;;;;14.77;1.97;;;11.50;99.90;;;;;;7280831;19;20578;-76
2023/12/23 08:50:34;;;;;;;13.20;2.10;;;11.50;99.90;;;;;;7281071;19;20683;-77
2023/12/23 08:53:00;;;;;;;11.23;1.53;;;11.50;99.90;;;;;;7302017;19;20213;-76
2023/12/23 08:55:25;;;;;;;12.70;2.10;;;11.60;99.90;;;;;;7280643;19;20180;-77
2023/12/23 08:57:51;;;;;;;14.73;1.97;;;11.60;99.90;;;;;;7280926;19;20197;-77
2023/12/23 09:00:18;;;;;;;10.57;2.00;;;11.60;99.90;;;;;;7281666;19;20188;-77
2023/12/23 09:02:43;;;;;;;14.87;2.10;;;11.70;99.90;;;;;;7279548;19;20255;-77
2023/12/23 09:05:09;;;;;;;17.17;2.43;;;11.70;99.90;;;;;;7281229;19;20272;-77
2023/12/23 09:07:35;;;;;;;15.27;2.40;;;11.80;99.90;;;;;;7280245;19;20212;-77
2023/12/23 09:10:03;;;;;;;11.43;1.67;;;11.80;99.90;;;;;;7303546;19;20192;-77
2023/12/23 09:12:28;;;;;;;14.23;2.00;;;11.80;99.90;;;;;;7280817;19;20203;-77
2023/12/23 09:14:54;;;;;;;13.17;2.13;;;11.80;99.90;;;;;;7281184;19;20203;-78
2023/12/23 09:17:20;;;;;;;15.73;1.70;;;12.00;99.90;;;;;;7281485;19;20195;-77
2023/12/23 09:19:46;;;;;;;11.87;1.90;;;12.00;99.90;;;;;;7280577;19;20192;-77
2023/12/23 09:22:11;;;;;;;12.87;2.07;;;12.00;99.90;;;;;;7279169;19;20201;-77
2023/12/23 09:24:37;;;;;;;12.80;1.83;;;11.90;99.90;;;;;;7281596;19;20199;-76
2023/12/23 09:27:03;;;;;;;13.50;1.80;;;11.90;99.90;;;;;;7286370;19;20288;-76
2023/12/23 09:29:29;;;;;;;12.87;2.87;;;12.00;99.90;;;;;;7302241;19;21137;-78
2023/12/23 09:31:56;;;;;;;11.77;2.00;;;12.00;99.90;;;;;;7279848;19;20260;-76
2023/12/23 09:34:22;;;;;;;18.77;2.13;;;12.00;99.90;;;;;;7280923;19;20205;-76
2023/12/23 09:36:48;;;;;;;11.10;2.07;;;11.90;99.90;;;;;;7279411;19;20191;-77
2023/12/23 09:39:14;;;;;;;14.10;1.70;;;12.00;99.90;;;;;;7279235;19;20199;-77
2023/12/23 09:41:41;;;;;;;12.50;2.00;;;12.00;99.90;;;;;;7280143;19;20193;-78
2023/12/23 09:44:07;;;;;;;14.87;2.20;;;12.00;99.90;;;;;;7279876;19;20265;-76
2023/12/23 09:46:32;;;;;;;12.90;1.80;;;12.00;99.90;;;;;;7294818;19;20185;-77
2023/12/23 09:48:58;;;;;;;12.00;1.97;;;12.00;99.90;;;;;;7296787;19;20181;-77
2023/12/23 09:51:29;;;;;;;10.93;1.63;;;12.00;99.90;;;;;;7277180;19;20219;-77
2023/12/23 09:54:00;;;;;;;11.70;1.77;;;12.00;99.90;;;;;;7278919;19;20231;-76
2023/12/23 09:56:30;;;;;;;9.90;1.60;;;11.80;99.90;;;;;;7277457;19;20197;-76
2023/12/23 09:58:56;;;;;;;11.40;2.20;;;11.70;99.90;;;;;;7279945;19;20188;-77
2023/12/23 10:01:22;;;;;;;11.77;2.07;;;11.60;99.90;;;;;;7278729;19;20592;-76
2023/12/23 10:03:50;;;;;;;9.43;1.67;;;11.70;99.90;;;;;;7280695;19;20184;-80
2023/12/23 10:06:16;;;;;;;10.40;1.80;;;11.70;99.90;;;;;;7284127;19;20180;-77
2023/12/23 10:08:43;;;;;;;10.23;1.77;;;11.70;99.90;;;;;;7284544;19;20576;-76
2023/12/23 10:11:09;;;;;;;9.13;1.67;;;11.60;99.90;;;;;;7285346;19;20299;-75
2023/12/23 10:13:35;;;;;;;12.90;1.90;;;11.80;99.90;;;;;;7285676;19;20255;-75
2023/12/23 10:16:01;;;;;;;8.97;1.60;;;11.70;99.90;;;;;;7306762;19;20191;-76
2023/12/23 10:18:27;;;;;;;4.73;1.30;;;11.80;99.90;;;;;;7287232;19;20191;-76
2023/12/23 10:20:53;;;;;;;6.30;1.50;;;11.90;99.90;;;;;;7284746;19;20179;-76
2023/12/23 10:23:18;;;;;;;9.30;1.60;;;12.10;99.90;;;;;;7285052;19;20278;-77
2023/12/23 10:25:50;;;;;;;11.57;2.00;;;12.10;99.90;;;;;;7285376;19;20205;-77
2023/12/23 10:28:19;;;;;;;10.07;2.03;;;12.30;99.90;;;;;;7284924;19;20204;-77
2023/12/23 10:30:50;;;;;;;10.87;1.60;;;12.50;99.90;;;;;;7284800;19;20196;-77
2023/12/23 10:33:25;;;;;;;11.43;1.67;;;12.50;99.90;;;;;;7284953;19;20256;-76
2023/12/23 10:35:51;;;;;;;7.17;1.50;;;12.50;99.90;;;;;;7283180;19;20652;-77
2023/12/23 10:38:20;;;;;;;12.43;2.00;;;12.60;99.90;;;;;;7284805;19;20192;-77
2023/12/23 10:41:13;;;;;;;6.33;1.10;;;12.70;99.90;;;;;;7283434;19;20252;-77
2023/12/23 10:43:39;;;;;;;8.67;1.43;;;12.70;99.90;;;;;;7181115;19;2004797;-77
2023/12/23 10:46:07;;;;;;;9.17;1.60;;;12.60;99.90;;;;;;7284269;19;20228;-75
2023/12/23 10:48:34;;;;;;;11.80;1.30;;;12.30;99.90;;;;;;7300423;19;20189;-76
2023/12/23 10:51:02;;;;;;;7.10;1.20;;;12.30;99.90;;;;;;7306144;19;20643;-76
2023/12/23 10:53:29;;;;;;;12.80;2.33;;;12.20;99.90;;;;;;7284880;19;20668;-75
2023/12/23 10:55:55;;;;;;;7.87;1.53;;;12.30;99.90;;;;;;7282260;19;20289;-75
2023/12/23 10:58:21;;;;;;;9.10;1.40;;;12.30;99.90;;;;;;7283141;19;20197;-75
2023/12/23 11:00:48;;;;;;;13.83;1.90;;;12.40;99.90;;;;;;7285063;19;20220;-77
2023/12/23 11:03:15;;;;;;;8.33;1.43;;;12.40;99.90;;;;;;7283423;19;20699;-78
2023/12/23 11:05:43;;;;;;;10.37;1.70;;;12.30;99.90;;;;;;7284125;19;20223;-76
2023/12/23 11:08:15;;;;;;;10.47;1.47;;;12.30;99.90;;;;;;7283460;19;20553;-77
2023/12/23 11:10:42;;;;;;;9.00;1.40;;;12.30;99.90;;;;;;7281974;19;20669;-77
2023/12/23 11:13:08;;;;;;;7.80;1.20;;;12.50;99.90;;;;;;7284372;19;20185;-76
2023/12/23 11:15:40;;;;;;;8.07;1.40;;;12.50;99.90;;;;;;7285185;19;20213;-77
2023/12/23 11:18:08;;;;;;;11.03;2.20;;;12.60;99.90;;;;;;7283355;19;20535;-77
2023/12/23 11:20:35;;;;;;;7.43;1.30;;;12.70;99.90;;;;;;7288335;19;20939;-77
2023/12/23 11:23:27;;;;;;;8.43;1.70;;;13.00;99.90;;;;;;7305480;19;20675;-77
2023/12/23 11:25:56;;;;;;;7.27;1.37;;;13.00;99.90;;;;;;7184092;19;2004643;-76
2023/12/23 11:28:26;;;;;;;14.07;1.90;;;13.10;99.90;;;;;;7286614;19;20321;-77
2023/12/23 11:30:52;;;;;;;9.53;1.70;;;13.10;99.90;;;;;;7285173;19;20207;-77
2023/12/23 11:33:19;;;;;;;10.57;1.70;;;13.20;99.90;;;;;;7286004;19;20192;-76
2023/12/23 11:35:52;;;;;;;10.87;1.60;;;13.20;99.90;;;;;;7286034;19;20248;-77
2023/12/23 11:38:20;;;;;;;7.20;1.57;;;13.00;99.90;;;;;;7285267;19;20185;-77
2023/12/23 11:40:48;;;;;;;12.03;1.80;;;12.90;99.90;;;;;;7287450;19;20265;-76
2023/12/23 11:43:17;;;;;;;10.23;1.43;;;13.10;99.90;;;;;;7285599;19;20664;-77
2023/12/23 11:45:44;;;;;;;15.47;2.00;;;13.00;99.90;;;;;;7286727;19;20193;-76
2023/12/23 11:48:10;;;;;;;12.30;1.77;;;13.00;99.90;;;;;;7285107;19;20212;-77
2023/12/23 11:50:36;;;;;;;7.73;1.40;;;12.90;99.90;;;;;;7285830;19;20194;-77
2023/12/23 11:53:02;;;;;;;10.03;1.77;;;12.90;99.90;;;;;;7307595;19;20261;-77
2023/12/23 11:55:28;;;;;;;8.27;1.77;;;12.80;99.90;;;;;;7285717;19;20222;-76
2023/12/23 11:57:54;;;;;;;10.37;1.37;;;12.90;99.90;;;;;;7284044;19;20284;-76
2023/12/23 12:00:20;;;;;;;10.07;1.80;;;12.80;99.90;;;;;;7285962;19;20685;-77
2023/12/23 12:02:46;;;;;;;10.53;1.73;;;12.90;99.90;;;;;;7284142;19;20188;-76
2023/12/23 12:05:12;;;;;;;10.23;1.40;;;12.90;99.90;;;;;;7286025;19;20574;-77
2023/12/23 12:07:38;;;;;;;7.80;1.30;;;13.00;99.90;;;;;;7286102;19;20193;-75
2023/12/23 12:10:04;;;;;;;13.93;1.43;;;12.90;99.90;;;;;;7287293;19;20185;-77
2023/12/23 12:12:30;;;;;;;8.57;1.60;;;12.80;99.90;;;;;;7307509;19;20189;-77
2023/12/23 12:14:56;;;;;;;9.07;1.47;;;12.90;99.90;;;;;;7283719;19;20575;-76
2023/12/23 12:17:24;;;;;;;9.57;1.63;;;12.90;99.90;;;;;;7283378;19;20727;-76
2023/12/23 12:19:50;;;;;;;8.23;1.40;;;12.90;99.90;;;;;;7284957;19;20207;-76
2023/12/23 12:22:16;;;;;;;9.47;1.67;;;12.90;99.90;;;;;;7282090;19;20502;-77
2023/12/23 12:24:43;;;;;;;10.63;1.63;;;13.00;99.90;;;;;;7285503;19;20222;-76
2023/12/23 12:27:09;;;;;;;11.60;1.80;;;12.90;99.90;;;;;;7282349;19;20200;-77
2023/12/23 12:29:35;;;;;;;10.03;2.07;;;12.90;99.90;;;;;;7286701;19;20202;-74
2023/12/23 12:32:01;;;;;;;12.07;1.50;;;12.80;99.90;;;;;;7305431;19;20624;-75
2023/12/23 12:34:30;;;;;;;10.60;1.83;;;12.90;99.90;;;;;;7285741;19;20197;-77